Time;durP1;ratioP1;P1;durP2;ratioP2;P2;SDS_P1;SDS_P2;PMS_P1;PMS_P2;Temp;Humidity;BMP_temperature;BMP_pressure;BME280_temperature;BME280_humidity;BME280_pressure;Samples;Min_cycle;Max_cycle;Signal;HPM_P1;HPM_P2
2021/06/24 00:01:41;;;;;;;2.05;1.77;;;17.50;1.00;;;;;;5070703;28;20025;-75
2021/06/24 00:04:07;;;;;;;2.00;1.80;;;17.40;1.00;;;;;;5069610;28;20385;-76
2021/06/24 00:06:33;;;;;;;2.47;1.77;;;17.40;1.00;;;;;;5071716;28;20043;-75
2021/06/24 00:08:58;;;;;;;3.80;2.00;;;17.50;1.00;;;;;;5064388;28;20102;-76
2021/06/24 00:11:24;;;;;;;1.77;1.65;;;17.40;1.00;;;;;;5066453;28;20027;-76
2021/06/24 00:13:49;;;;;;;2.05;1.95;;;17.60;1.00;;;;;;5069242;28;20111;-75
2021/06/24 00:16:15;;;;;;;2.90;2.08;;;17.70;1.00;;;;;;5071791;28;20032;-76
2021/06/24 00:18:41;;;;;;;2.55;1.90;;;17.60;1.00;;;;;;5064589;28;20222;-75
2021/06/24 00:21:07;;;;;;;2.08;1.88;;;17.50;1.00;;;;;;5068592;28;20051;-75
2021/06/24 00:23:33;;;;;;;2.10;1.90;;;17.50;1.00;;;;;;5072772;28;20389;-75
2021/06/24 00:25:59;;;;;;;2.78;1.90;;;17.50;1.00;;;;;;5056841;28;20049;-75
2021/06/24 00:28:27;;;;;;;2.88;2.22;;;17.50;1.00;;;;;;5064164;28;20128;-75
2021/06/24 00:30:54;;;;;;;6.10;2.40;;;17.60;1.00;;;;;;5086607;28;20422;-75
2021/06/24 00:33:21;;;;;;;3.50;1.95;;;17.60;1.00;;;;;;5071922;28;20489;-76
2021/06/24 00:35:47;;;;;;;3.08;2.15;;;17.50;1.00;;;;;;5079264;28;20021;-76
2021/06/24 00:38:13;;;;;;;2.00;1.63;;;17.50;1.00;;;;;;5072318;28;20101;-76
2021/06/24 00:40:40;;;;;;;1.90;1.80;;;17.50;1.00;;;;;;5071636;28;20029;-75
2021/06/24 00:43:08;;;;;;;3.03;2.20;;;17.50;1.00;;;;;;5063610;28;20025;-75
2021/06/24 00:45:35;;;;;;;2.17;1.80;;;17.50;1.00;;;;;;5064558;28;20032;-76
2021/06/24 00:48:01;;;;;;;3.60;1.90;;;17.60;1.00;;;;;;5068159;28;20504;-75
2021/06/24 00:50:27;;;;;;;8.25;3.30;;;17.60;1.00;;;;;;5071632;28;20025;-76
2021/06/24 00:52:53;;;;;;;2.55;2.28;;;17.60;1.00;;;;;;5070507;28;20048;-76
2021/06/24 00:55:39;;;;;;;2.80;2.40;;;17.60;1.00;;;;;;5071396;28;20032;-75
2021/06/24 00:58:05;;;;;;;2.30;2.10;;;17.60;1.00;;;;;;5071648;28;20025;-75
2021/06/24 01:00:31;;;;;;;3.03;2.53;;;17.60;1.00;;;;;;5064341;28;20111;-75
2021/06/24 01:02:56;;;;;;;2.92;2.70;;;17.70;1.00;;;;;;5069630;28;20066;-75
2021/06/24 01:05:23;;;;;;;2.72;2.28;;;17.70;1.00;;;;;;5071437;28;20047;-75
2021/06/24 01:07:48;;;;;;;2.95;2.25;;;17.60;1.00;;;;;;5070935;28;20029;-76
2021/06/24 01:10:14;;;;;;;2.40;2.20;;;17.60;1.00;;;;;;5063915;28;20024;-76
2021/06/24 01:12:40;;;;;;;2.90;2.70;;;17.60;1.00;;;;;;5071054;28;20067;-75
2021/06/24 01:15:06;;;;;;;4.75;3.03;;;17.60;1.00;;;;;;5064163;28;20027;-75
2021/06/24 01:17:32;;;;;;;8.60;4.65;;;17.60;1.00;;;;;;5071602;28;20031;-76
2021/06/24 01:19:57;;;;;;;3.28;2.90;;;17.70;1.00;;;;;;5070387;28;20036;-75
2021/06/24 01:22:23;;;;;;;4.80;2.60;;;17.80;1.00;;;;;;5068440;28;20056;-75
2021/06/24 01:24:49;;;;;;;3.00;2.70;;;17.80;1.00;;;;;;5070544;28;20035;-75
2021/06/24 01:27:14;;;;;;;2.75;2.55;;;17.90;1.00;;;;;;5069131;28;20033;-74
2021/06/24 01:29:40;;;;;;;3.55;2.92;;;17.90;1.00;;;;;;5070600;28;20043;-75
2021/06/24 01:32:06;;;;;;;3.20;2.95;;;17.80;1.00;;;;;;5063394;28;20024;-75
2021/06/24 01:34:31;;;;;;;3.08;2.78;;;17.80;1.00;;;;;;5064550;28;20029;-75
2021/06/24 01:36:57;;;;;;;3.22;2.90;;;17.80;1.00;;;;;;5086087;28;20021;-74
2021/06/24 01:39:23;;;;;;;3.38;2.88;;;17.70;1.00;;;;;;5063657;28;20110;-76
2021/06/24 01:41:59;;;;;;;3.80;2.85;;;17.70;1.00;;;;;;5069315;28;20082;-75
2021/06/24 01:44:32;;;;;;;4.32;3.80;;;17.70;1.00;;;;;;5069757;28;20028;-75
2021/06/24 01:46:58;;;;;;;3.40;3.10;;;17.70;1.00;;;;;;5069524;28;20029;-75
2021/06/24 01:49:23;;;;;;;6.18;3.03;;;17.60;1.00;;;;;;5069161;28;20039;-74
2021/06/24 01:51:49;;;;;;;4.13;2.83;;;17.60;1.00;;;;;;5069437;28;20024;-75
2021/06/24 01:54:18;;;;;;;3.92;3.60;;;17.80;1.00;;;;;;5069770;28;20036;-75
2021/06/24 01:56:45;;;;;;;3.35;2.88;;;17.80;1.00;;;;;;5067859;28;20119;-76
2021/06/24 01:59:10;;;;;;;8.27;3.55;;;17.70;1.00;;;;;;5070045;28;20523;-75
2021/06/24 02:01:36;;;;;;;3.75;3.40;;;17.60;1.00;;;;;;5068749;28;20055;-75
2021/06/24 02:04:01;;;;;;;3.28;3.05;;;17.50;1.00;;;;;;5067762;28;20029;-75
2021/06/24 02:06:27;;;;;;;6.10;3.30;;;17.40;1.00;;;;;;5070366;28;20024;-75
2021/06/24 02:08:52;;;;;;;4.30;3.65;;;17.40;1.00;;;;;;5065241;28;20096;-76
2021/06/24 02:11:18;;;;;;;4.00;3.25;;;17.30;1.00;;;;;;5070007;28;20052;-74
2021/06/24 02:13:43;;;;;;;7.50;4.10;;;17.40;1.00;;;;;;5064459;28;20032;-75
2021/06/24 02:16:09;;;;;;;5.22;3.53;;;17.40;1.00;;;;;;5070520;28;20052;-75
2021/06/24 02:18:35;;;;;;;3.60;3.30;;;17.30;1.00;;;;;;5085991;28;20029;-75
2021/06/24 02:21:00;;;;;;;3.90;3.53;;;17.30;1.00;;;;;;5069867;28;20389;-75
2021/06/24 02:23:26;;;;;;;3.53;3.33;;;17.40;1.00;;;;;;5073892;28;20025;-76
2021/06/24 02:25:51;;;;;;;4.03;3.40;;;17.50;1.00;;;;;;5089739;28;20024;-74
2021/06/24 02:28:17;;;;;;;3.95;3.60;;;17.50;1.00;;;;;;5071397;28;20397;-75
2021/06/24 02:30:42;;;;;;;4.13;3.70;;;17.40;1.00;;;;;;5066446;28;20053;-75
2021/06/24 02:33:10;;;;;;;6.30;3.78;;;17.40;1.00;;;;;;5070297;28;20474;-75
2021/06/24 02:35:37;;;;;;;4.18;3.78;;;17.40;1.00;;;;;;5085847;28;20051;-76
2021/06/24 02:38:08;;;;;;;5.47;4.63;;;17.30;1.00;;;;;;5073036;28;20028;-75
2021/06/24 02:40:34;;;;;;;5.05;4.40;;;17.30;1.00;;;;;;5072796;28;20028;-75
2021/06/24 02:43:00;;;;;;;6.07;5.35;;;17.30;1.00;;;;;;5071182;28;20029;-76
2021/06/24 02:45:25;;;;;;;6.28;5.68;;;17.20;1.00;;;;;;5068699;28;20397;-75
2021/06/24 02:47:51;;;;;;;6.30;5.70;;;17.20;1.00;;;;;;5073767;28;20082;-76
2021/06/24 02:50:17;;;;;;;7.80;5.70;;;17.30;1.00;;;;;;5073628;28;20025;-75
2021/06/24 02:52:43;;;;;;;6.43;5.93;;;17.30;1.00;;;;;;5073745;28;20063;-76
2021/06/24 02:55:08;;;;;;;7.07;6.47;;;17.20;1.00;;;;;;5072722;28;20035;-74
2021/06/24 02:57:34;;;;;;;6.45;5.60;;;17.20;1.00;;;;;;5066482;28;20421;-75
2021/06/24 03:00:00;;;;;;;9.13;6.50;;;17.20;1.00;;;;;;5073233;28;20024;-76
2021/06/24 03:02:25;;;;;;;7.07;6.03;;;17.30;1.00;;;;;;5073350;28;20043;-76
2021/06/24 03:04:51;;;;;;;5.53;5.03;;;17.30;1.00;;;;;;5072435;28;20028;-75
2021/06/24 03:07:16;;;;;;;5.00;4.57;;;17.20;1.00;;;;;;5073385;28;20040;-76
2021/06/24 03:09:42;;;;;;;5.22;4.60;;;17.20;1.00;;;;;;5064958;28;20039;-76
2021/06/24 03:12:08;;;;;;;5.05;4.28;;;17.20;1.00;;;;;;5066597;28;20016;-75
2021/06/24 03:14:34;;;;;;;5.72;4.55;;;17.20;1.00;;;;;;5081866;28;20147;-75
2021/06/24 03:16:59;;;;;;;6.15;4.50;;;17.30;1.00;;;;;;5058436;28;20104;-76
2021/06/24 03:19:25;;;;;;;4.95;4.55;;;17.40;1.00;;;;;;5073320;28;20493;-75
2021/06/24 03:21:51;;;;;;;4.63;4.22;;;17.40;1.00;;;;;;5067862;28;20031;-76
2021/06/24 03:24:16;;;;;;;4.03;3.72;;;17.30;1.00;;;;;;5072561;28;20029;-75
2021/06/24 03:26:42;;;;;;;4.65;3.60;;;17.20;1.00;;;;;;5071929;28;20107;-75
2021/06/24 03:29:08;;;;;;;4.65;3.80;;;17.10;1.00;;;;;;5086179;28;20441;-75
2021/06/24 03:31:34;;;;;;;5.47;3.97;;;17.10;1.00;;;;;;5064922;28;20393;-76
2021/06/24 03:34:00;;;;;;;4.22;3.83;;;17.10;1.00;;;;;;5070556;28;20080;-75
2021/06/24 03:36:26;;;;;;;4.55;4.15;;;17.10;1.00;;;;;;5056138;28;20393;-75
2021/06/24 03:38:52;;;;;;;3.58;3.28;;;17.10;1.00;;;;;;5064598;28;20086;-76
2021/06/24 03:41:24;;;;;;;4.00;3.42;;;17.20;1.00;;;;;;5067788;28;20025;-75
2021/06/24 03:43:50;;;;;;;;;;;17.20;1.00;;;;;;5071704;28;20028;-75
2021/06/24 03:46:15;;;;;;;5.53;3.20;;;17.20;1.00;;;;;;5088908;28;19905;-75
2021/06/24 03:48:41;;;;;;;3.72;3.05;;;17.20;1.00;;;;;;5072156;28;20035;-76
2021/06/24 03:51:06;;;;;;;3.67;3.33;;;17.20;1.00;;;;;;5086083;28;20021;-74
2021/06/24 03:53:34;;;;;;;3.13;2.92;;;17.20;1.00;;;;;;5072146;28;20024;-75
2021/06/24 03:55:59;;;;;;;3.80;2.83;;;17.20;1.00;;;;;;5072216;28;20031;-75
2021/06/24 03:58:25;;;;;;;3.58;2.65;;;17.20;1.00;;;;;;5072631;28;20025;-76
2021/06/24 04:00:50;;;;;;;3.50;2.40;;;17.20;1.00;;;;;;5064412;28;20127;-75
2021/06/24 04:03:16;;;;;;;3.25;2.67;;;17.20;1.00;;;;;;5071342;28;20033;-75
2021/06/24 04:05:43;;;;;;;5.47;3.08;;;17.20;1.00;;;;;;5056800;28;20100;-76
2021/06/24 04:08:08;;;;;;;4.75;3.20;;;17.30;1.00;;;;;;5082197;28;20094;-75
2021/06/24 04:10:36;;;;;;;3.10;2.90;;;17.20;1.00;;;;;;5069214;28;20478;-77
2021/06/24 04:13:01;;;;;;;3.60;3.30;;;17.30;1.00;;;;;;5069211;28;20028;-76
2021/06/24 04:15:28;;;;;;;4.22;3.17;;;17.30;1.00;;;;;;5065976;28;20028;-75
2021/06/24 04:17:54;;;;;;;4.18;3.40;;;17.40;1.00;;;;;;5071025;28;20055;-75
2021/06/24 04:20:20;;;;;;;4.05;3.55;;;17.40;1.00;;;;;;5072338;28;20428;-75
2021/06/24 04:22:46;;;;;;;3.92;3.47;;;17.50;1.00;;;;;;5071780;28;20082;-76
2021/06/24 04:25:15;;;;;;;2.78;2.45;;;17.60;1.00;;;;;;5067431;28;20068;-75
2021/06/24 04:27:41;;;;;;;4.05;2.67;;;17.50;1.00;;;;;;5069789;28;20040;-76
2021/06/24 04:30:08;;;;;;;5.03;3.05;;;17.50;1.00;;;;;;5068594;28;20363;-75
2021/06/24 04:32:34;;;;;;;2.88;2.58;;;17.60;1.00;;;;;;5061366;28;20033;-76
2021/06/24 04:35:00;;;;;;;4.10;2.13;;;17.60;1.00;;;;;;5064403;28;20020;-75
2021/06/24 04:37:26;;;;;;;4.18;2.35;;;17.60;1.00;;;;;;5070771;28;20465;-76
2021/06/24 04:39:51;;;;;;;3.80;2.38;;;17.70;1.00;;;;;;5071626;28;20446;-75
2021/06/24 04:42:17;;;;;;;2.50;2.30;;;17.80;1.00;;;;;;5071277;28;20449;-75
2021/06/24 04:44:42;;;;;;;3.42;2.13;;;17.90;1.00;;;;;;5063276;28;20316;-75
2021/06/24 04:47:08;;;;;;;2.08;1.75;;;18.00;1.00;;;;;;5071642;28;20470;-75
2021/06/24 04:49:34;;;;;;;8.38;2.50;;;18.10;1.00;;;;;;5070632;28;20052;-76
2021/06/24 04:51:59;;;;;;;4.75;2.35;;;18.10;1.00;;;;;;5071923;28;20039;-76
2021/06/24 04:54:25;;;;;;;3.60;2.20;;;18.00;1.00;;;;;;5070122;28;20016;-75
2021/06/24 04:56:50;;;;;;;2.50;2.00;;;18.00;1.00;;;;;;5069042;28;20595;-75
2021/06/24 04:59:16;;;;;;;3.08;2.10;;;18.20;1.00;;;;;;5077142;28;20035;-74
2021/06/24 05:01:42;;;;;;;4.25;2.53;;;18.50;1.00;;;;;;5091964;28;20063;-75
2021/06/24 05:04:07;;;;;;;3.72;2.13;;;19.20;1.00;;;;;;5074736;28;20062;-75
2021/06/24 05:06:33;;;;;;;2.10;1.90;;;19.80;1.00;;;;;;5083262;28;20086;-74
2021/06/24 05:09:00;;;;;;;1.98;1.77;;;19.90;99.90;;;;;;5090920;28;20032;-74
2021/06/24 05:11:26;;;;;;;2.63;1.63;;;20.10;1.00;;;;;;5069431;28;20016;-73
2021/06/24 05:13:51;;;;;;;2.10;1.90;;;20.30;99.90;;;;;;5088618;28;20085;-74
2021/06/24 05:16:17;;;;;;;1.92;1.75;;;20.80;99.90;;;;;;5083061;28;20068;-75
2021/06/24 05:18:43;;;;;;;1.75;1.52;;;21.60;99.90;;;;;;5089867;28;20028;-74
2021/06/24 05:21:09;;;;;;;3.97;1.45;;;22.90;99.90;;;;;;5083020;28;20032;-74
2021/06/24 05:23:38;;;;;;;2.55;1.85;;;23.40;5.10;;;;;;5085249;28;20056;-74
2021/06/24 05:26:03;;;;;;;1.50;1.40;;;24.40;99.90;;;;;;5077320;28;20032;-73
2021/06/24 05:28:29;;;;;;;2.33;1.42;;;24.50;99.90;;;;;;5065364;28;20025;-75
2021/06/24 05:30:55;;;;;;;2.45;1.27;;;24.90;99.90;;;;;;5069788;28;20086;-75
2021/06/24 05:33:20;;;;;;;1.77;1.42;;;24.80;99.90;;;;;;5069685;28;20382;-75
2021/06/24 05:35:47;;;;;;;0.98;0.90;;;24.40;99.90;;;;;;5064461;28;20025;-74
2021/06/24 05:38:16;;;;;;;2.17;1.50;;;23.50;99.90;;;;;;5071771;28;20024;-75
2021/06/24 05:40:46;;;;;;;1.30;1.20;;;22.80;1.00;;;;;;5076359;28;20039;-74
2021/06/24 05:43:13;;;;;;;3.25;1.35;;;21.90;99.90;;;;;;5070093;28;20028;-74
2021/06/24 05:45:39;;;;;;;1.58;1.48;;;21.40;1.00;;;;;;5078682;28;20028;-75
2021/06/24 05:48:05;;;;;;;2.92;2.13;;;20.70;1.00;;;;;;5088327;28;20055;-74
2021/06/24 05:50:31;;;;;;;2.45;2.08;;;20.50;99.90;;;;;;5080885;28;20335;-74
2021/06/24 05:52:56;;;;;;;1.80;1.70;;;20.20;99.90;;;;;;5085630;28;20031;-74
2021/06/24 05:55:47;;;;;;;2.13;2.00;;;20.00;99.90;;;;;;5097521;28;20028;-75
2021/06/24 05:58:09;;;;;;;2.55;2.35;;;20.50;99.90;;;;;;5067882;28;20035;-74
2021/06/24 06:00:35;;;;;;;2.63;2.42;;;20.80;99.90;;;;;;5071040;28;20029;-74
2021/06/24 06:03:01;;;;;;;2.75;2.40;;;20.70;99.90;;;;;;5064188;28;20108;-74
2021/06/24 06:05:26;;;;;;;2.88;2.58;;;20.30;99.90;;;;;;5070945;28;20029;-73
2021/06/24 06:07:52;;;;;;;3.50;2.80;;;19.70;99.90;;;;;;5079199;28;20032;-74
2021/06/24 06:10:18;;;;;;;2.65;2.45;;;19.50;99.90;;;;;;5071618;28;20120;-75
2021/06/24 06:12:43;;;;;;;2.75;2.55;;;19.30;99.90;;;;;;5100457;28;20017;-75
2021/06/24 06:15:09;;;;;;;3.08;2.78;;;19.30;1.00;;;;;;5104256;28;20531;-74
2021/06/24 06:17:35;;;;;;;3.00;2.80;;;19.20;99.90;;;;;;5083259;28;20100;-77
2021/06/24 06:20:01;;;;;;;2.72;2.42;;;19.30;99.90;;;;;;5071245;28;20035;-75
2021/06/24 06:22:26;;;;;;;5.45;2.85;;;19.70;99.90;;;;;;5069732;28;20486;-75
2021/06/24 06:24:52;;;;;;;2.58;2.38;;;19.60;99.90;;;;;;5072139;28;20032;-74
2021/06/24 06:27:17;;;;;;;2.90;2.60;;;19.70;99.90;;;;;;5073304;28;20032;-76
2021/06/24 06:29:43;;;;;;;2.47;2.28;;;19.60;99.90;;;;;;5063473;28;20115;-74
2021/06/24 06:32:08;;;;;;;2.67;2.45;;;19.30;1.00;;;;;;5073470;28;20017;-75
2021/06/24 06:34:34;;;;;;;3.20;2.80;;;19.40;1.00;;;;;;5072979;28;20027;-75
2021/06/24 06:37:00;;;;;;;4.32;3.63;;;19.40;1.00;;;;;;5066159;28;20025;-75
2021/06/24 06:39:25;;;;;;;3.70;3.40;;;19.40;1.00;;;;;;5074214;28;20628;-75
2021/06/24 06:41:51;;;;;;;3.05;2.85;;;19.30;1.00;;;;;;5071213;28;20035;-75
2021/06/24 06:44:16;;;;;;;2.83;2.63;;;19.70;99.90;;;;;;5089526;28;20020;-75
2021/06/24 06:46:42;;;;;;;2.80;2.60;;;19.80;99.90;;;;;;5088660;28;20107;-76
2021/06/24 06:49:07;;;;;;;3.90;2.47;;;20.10;99.90;;;;;;5066340;28;20096;-75
2021/06/24 06:51:33;;;;;;;2.83;2.63;;;20.20;99.90;;;;;;5073820;28;20017;-74
2021/06/24 06:53:58;;;;;;;2.10;2.00;;;20.10;99.90;;;;;;5071707;28;20033;-75
2021/06/24 06:56:24;;;;;;;2.60;2.40;;;19.80;99.90;;;;;;5073907;28;20440;-75
2021/06/24 06:58:50;;;;;;;3.33;2.80;;;19.70;99.90;;;;;;5056370;28;20433;-76
2021/06/24 07:01:15;;;;;;;2.60;2.40;;;19.70;99.90;;;;;;5071897;28;20027;-75
2021/06/24 07:03:41;;;;;;;3.00;2.80;;;19.80;99.90;;;;;;5074549;28;20028;-75
2021/06/24 07:06:06;;;;;;;2.78;2.58;;;19.60;99.90;;;;;;5069796;28;20074;-75
2021/06/24 07:08:32;;;;;;;2.42;2.22;;;19.70;99.90;;;;;;5071049;28;20028;-76
2021/06/24 07:10:57;;;;;;;1.98;1.83;;;20.30;99.90;;;;;;5069983;28;20512;-75
2021/06/24 07:13:23;;;;;;;2.88;1.98;;;20.60;99.90;;;;;;5071377;28;20021;-76
2021/06/24 07:15:49;;;;;;;2.47;2.00;;;20.80;99.90;;;;;;5069696;28;20021;-76
2021/06/24 07:18:15;;;;;;;2.38;2.00;;;21.00;99.90;;;;;;5066104;28;20033;-76
2021/06/24 07:20:42;;;;;;;1.90;1.80;;;21.50;99.90;;;;;;5072124;28;20563;-76
2021/06/24 07:23:08;;;;;;;3.10;1.77;;;21.60;99.90;;;;;;5082350;28;20070;-76
2021/06/24 07:25:34;;;;;;;1.60;1.50;;;22.10;99.90;;;;;;5064682;28;20489;-76
2021/06/24 07:28:00;;;;;;;2.30;2.17;;;22.20;34.60;;;;;;5072316;28;20027;-76
2021/06/24 07:30:26;;;;;;;2.30;1.80;;;22.60;1.00;;;;;;5065265;28;20394;-75
2021/06/24 07:32:51;;;;;;;1.70;1.60;;;22.70;99.90;;;;;;5071675;28;20106;-76
2021/06/24 07:35:17;;;;;;;2.28;1.75;;;22.60;99.90;;;;;;5053744;28;20048;-76
2021/06/24 07:37:44;;;;;;;1.95;1.83;;;22.60;99.90;;;;;;5072964;28;20505;-76
2021/06/24 07:40:10;;;;;;;2.25;1.98;;;22.70;99.90;;;;;;5068212;28;20021;-76
2021/06/24 07:42:36;;;;;;;1.40;1.30;;;23.00;99.90;;;;;;5068861;28;20090;-74
2021/06/24 07:45:03;;;;;;;2.35;1.80;;;22.90;1.00;;;;;;5072205;28;20025;-75
2021/06/24 07:47:29;;;;;;;2.00;1.85;;;22.90;1.00;;;;;;5073209;28;20024;-75
2021/06/24 07:49:55;;;;;;;2.35;2.00;;;23.00;1.00;;;;;;5068108;28;20021;-75
2021/06/24 07:52:21;;;;;;;2.72;1.85;;;23.10;1.00;;;;;;5089514;28;20040;-76
2021/06/24 07:54:46;;;;;;;3.05;1.90;;;23.20;99.90;;;;;;5064525;28;20020;-75
2021/06/24 07:57:12;;;;;;;1.90;1.60;;;23.00;99.90;;;;;;5072086;28;20020;-75
2021/06/24 07:59:38;;;;;;;7.70;1.77;;;22.90;99.90;;;;;;5067809;28;20020;-77
2021/06/24 08:02:05;;;;;;;3.05;2.30;;;23.20;99.90;;;;;;5071464;28;20030;-77
2021/06/24 08:04:32;;;;;;;2.53;2.00;;;23.30;99.90;;;;;;5082536;28;20033;-76
2021/06/24 08:06:57;;;;;;;3.78;2.05;;;23.20;99.90;;;;;;5071212;28;20024;-77
2021/06/24 08:09:23;;;;;;;5.38;2.40;;;23.00;99.90;;;;;;5067291;28;20120;-75
2021/06/24 08:11:48;;;;;;;5.65;1.65;;;22.60;99.90;;;;;;5054091;28;20025;-76
2021/06/24 08:14:14;;;;;;;1.58;1.40;;;23.10;95.10;;;;;;5088246;28;20033;-76
2021/06/24 08:16:40;;;;;;;2.90;1.90;;;23.60;1.00;;;;;;5065521;28;20111;-76
2021/06/24 08:19:05;;;;;;;2.55;1.30;;;23.60;99.90;;;;;;5065249;28;20024;-75
2021/06/24 08:21:32;;;;;;;1.60;1.40;;;23.90;1.00;;;;;;5069520;28;20104;-76
2021/06/24 08:23:57;;;;;;;2.30;2.17;;;23.80;13.40;;;;;;5062331;28;20044;-77
2021/06/24 08:26:23;;;;;;;2.15;1.83;;;23.90;97.40;;;;;;5084017;28;20067;-75
2021/06/24 08:28:48;;;;;;;2.45;1.85;;;23.90;99.90;;;;;;5070475;28;20520;-78
2021/06/24 08:31:14;;;;;;;1.92;1.58;;;23.60;99.90;;;;;;5064581;28;20021;-76
2021/06/24 08:33:40;;;;;;;1.75;1.40;;;23.50;99.90;;;;;;5070986;28;20032;-76
2021/06/24 08:36:06;;;;;;;1.48;1.38;;;23.50;99.90;;;;;;5064511;28;20029;-75
2021/06/24 08:38:31;;;;;;;1.80;1.70;;;23.40;33.50;;;;;;5071998;28;20029;-75
2021/06/24 08:40:58;;;;;;;1.67;1.58;;;23.40;97.20;;;;;;5070442;28;20505;-76
2021/06/24 08:43:24;;;;;;;2.70;2.47;;;23.20;99.90;;;;;;5071097;28;20032;-76
2021/06/24 08:45:50;;;;;;;5.25;1.83;;;23.60;99.90;;;;;;5070037;28;20032;-76
2021/06/24 08:48:18;;;;;;;5.07;2.05;;;23.50;99.90;;;;;;5067084;28;20109;-75
2021/06/24 08:50:48;;;;;;;4.70;1.88;;;23.60;99.90;;;;;;5077008;28;20024;-74
2021/06/24 08:53:17;;;;;;;4.30;1.67;;;23.80;99.90;;;;;;5072191;28;20025;-76
2021/06/24 08:55:46;;;;;;;4.05;2.10;;;23.70;99.90;;;;;;5063847;28;20107;-77
2021/06/24 08:58:11;;;;;;;1.77;1.60;;;24.00;99.90;;;;;;5071342;28;20371;-75
2021/06/24 09:00:37;;;;;;;3.47;1.58;;;25.00;99.90;;;;;;5087471;28;20046;-77
2021/06/24 09:03:16;;;;;;;1.90;1.80;;;24.30;99.90;;;;;;5084745;28;20036;-77
2021/06/24 09:05:53;;;;;;;1.60;1.50;;;24.60;25.20;;;;;;5081506;28;20023;-76
2021/06/24 09:08:26;;;;;;;4.32;2.00;;;24.20;7.40;;;;;;5068506;28;20074;-77
2021/06/24 09:11:11;;;;;;;2.33;1.40;;;24.50;1.00;;;;;;5063472;28;20049;-76
2021/06/24 09:13:37;;;;;;;3.08;1.65;;;24.00;1.00;;;;;;5070617;28;20031;-76
2021/06/24 09:16:36;;;;;;;6.35;2.08;;;23.60;1.00;;;;;;5071967;28;20384;-77
2021/06/24 09:19:18;;;;;;;2.67;1.70;;;23.30;1.00;;;;;;5067064;28;20135;-76
2021/06/24 09:21:48;;;;;;;3.72;1.70;;;22.90;99.90;;;;;;5070465;28;20025;-76
2021/06/24 09:24:48;;;;;;;2.58;1.75;;;23.20;99.90;;;;;;5071194;28;20020;-77
2021/06/24 09:27:17;;;;;;;1.70;1.50;;;22.60;99.90;;;;;;5071697;28;20093;-76
2021/06/24 09:29:43;;;;;;;1.63;1.50;;;22.90;99.90;;;;;;5071158;28;20085;-77
2021/06/24 09:32:08;;;;;;;3.83;3.33;;;22.60;99.90;;;;;;5066154;28;20551;-77
2021/06/24 09:34:34;;;;;;;7.60;2.53;;;23.10;99.90;;;;;;5067951;28;20096;-75
2021/06/24 09:37:03;;;;;;;8.65;2.88;;;23.10;99.90;;;;;;5067084;28;20042;-77
2021/06/24 09:39:32;;;;;;;7.03;2.50;;;22.40;1.00;;;;;;5080570;28;20040;-77
2021/06/24 09:42:12;;;;;;;29.83;5.13;;;21.90;99.90;;;;;;5068664;28;20044;-76
2021/06/24 09:44:39;;;;;;;3.53;2.30;;;21.90;1.00;;;;;;5071581;28;20370;-77
2021/06/24 09:47:29;;;;;;;5.78;2.80;;;22.10;99.90;;;;;;5064941;28;20078;-76
2021/06/24 09:50:06;;;;;;;9.95;2.58;;;22.50;99.90;;;;;;5051876;28;20025;-77
2021/06/24 09:52:32;;;;;;;9.25;2.55;;;22.50;99.90;;;;;;5083288;28;20032;-76
2021/06/24 09:55:10;;;;;;;4.88;1.80;;;22.80;99.90;;;;;;5070477;28;20016;-76
2021/06/24 09:57:37;;;;;;;3.22;2.00;;;23.10;99.90;;;;;;5071544;28;20027;-77
2021/06/24 10:00:22;;;;;;;2.92;2.22;;;23.50;28.40;;;;;;5069863;28;20027;-76
2021/06/24 10:03:13;;;;;;;4.85;2.03;;;24.10;99.90;;;;;;5074323;28;20031;-75
2021/06/24 10:05:43;;;;;;;3.05;1.60;;;23.80;99.90;;;;;;5087044;28;20037;-75
2021/06/24 10:08:09;;;;;;;7.47;2.63;;;23.90;99.90;;;;;;5067401;28;20125;-77
2021/06/24 10:10:36;;;;;;;8.48;2.00;;;24.30;99.90;;;;;;5082795;28;20169;-76
2021/06/24 10:13:02;;;;;;;5.00;2.78;;;24.40;99.90;;;;;;5061447;28;20029;-77
2021/06/24 10:15:32;;;;;;;4.30;1.88;;;24.70;99.90;;;;;;5086226;28;20131;-76
2021/06/24 10:17:58;;;;;;;2.40;1.73;;;24.80;1.00;;;;;;5067819;28;20071;-76
2021/06/24 10:20:28;;;;;;;4.38;1.40;;;24.70;99.90;;;;;;5063421;28;20494;-76
2021/06/24 10:23:10;;;;;;;3.35;1.45;;;24.80;99.90;;;;;;5087142;28;20500;-76
2021/06/24 10:25:38;;;;;;;1.50;1.40;;;24.90;99.90;;;;;;5071406;28;20071;-75
2021/06/24 10:28:05;;;;;;;7.30;1.65;;;24.70;99.60;;;;;;5051797;28;20090;-77
2021/06/24 10:30:39;;;;;;;2.60;1.60;;;24.60;99.90;;;;;;5061783;28;20029;-76
2021/06/24 10:33:10;;;;;;;2.25;1.70;;;24.60;99.90;;;;;;5051352;28;20109;-76
2021/06/24 10:35:37;;;;;;;;;;;24.40;99.90;;;;;;5070380;28;20111;-76
2021/06/24 10:38:04;;;;;;;2.58;1.70;;;24.20;99.90;;;;;;5063606;28;19981;-76
2021/06/24 10:40:40;;;;;;;6.07;1.90;;;24.40;99.90;;;;;;5070528;28;20329;-76
2021/06/24 10:43:15;;;;;;;4.18;1.67;;;24.30;99.90;;;;;;5059176;28;20021;-76
2021/06/24 10:45:43;;;;;;;1.58;1.45;;;24.50;1.00;;;;;;5066077;28;20594;-76
2021/06/24 10:48:29;;;;;;;0.82;0.77;;;24.80;1.00;;;;;;5066835;28;20375;-76
2021/06/24 10:51:08;;;;;;;1.65;1.10;;;25.00;4.90;;;;;;5066792;28;20082;-78
2021/06/24 10:53:36;;;;;;;3.97;1.20;;;25.20;99.90;;;;;;5074461;28;20485;-78
2021/06/24 10:56:01;;;;;;;4.65;1.35;;;25.00;99.90;;;;;;5072646;28;20029;-76
2021/06/24 10:58:34;;;;;;;2.72;1.10;;;25.00;35.30;;;;;;5072911;28;20021;-76
2021/06/24 11:01:00;;;;;;;2.17;1.00;;;25.00;70.50;;;;;;5073835;28;20032;-78
2021/06/24 11:03:32;;;;;;;3.30;1.13;;;24.90;1.00;;;;;;5067629;28;20025;-76
2021/06/24 11:06:17;;;;;;;1.85;0.80;;;25.20;1.00;;;;;;5072878;28;20029;-77
2021/06/24 11:08:44;;;;;;;1.20;0.90;;;25.40;99.90;;;;;;5065344;28;20029;-75
2021/06/24 11:11:17;;;;;;;5.50;1.00;;;25.50;99.90;;;;;;5060127;28;20025;-76
2021/06/24 11:13:46;;;;;;;1.92;1.10;;;25.50;99.90;;;;;;5072350;28;20077;-77
2021/06/24 11:16:19;;;;;;;5.43;0.80;;;25.90;99.90;;;;;;5066926;28;20116;-76
2021/06/24 11:18:49;;;;;;;2.28;1.00;;;26.20;69.00;;;;;;5073300;28;20519;-76
2021/06/24 11:21:42;;;;;;;1.87;0.67;;;26.40;1.00;;;;;;5072464;28;20398;-76
2021/06/24 11:24:08;;;;;;;0.70;0.70;;;26.50;1.00;;;;;;5073950;28;20440;-77
2021/06/24 11:26:39;;;;;;;1.85;1.05;;;26.50;99.90;;;;;;5074015;28;20028;-76
2021/06/24 11:29:09;;;;;;;1.98;0.93;;;26.20;99.90;;;;;;5053682;28;20075;-76
2021/06/24 11:32:05;;;;;;;1.35;0.82;;;26.10;99.90;;;;;;5077020;28;20029;-77
2021/06/24 11:34:58;;;;;;;1.23;0.70;;;26.10;99.90;;;;;;5072382;28;20402;-77
2021/06/24 11:37:34;;;;;;;1.52;0.73;;;25.90;99.90;;;;;;5066936;28;20033;-76
2021/06/24 11:40:08;;;;;;;2.47;0.65;;;26.10;99.90;;;;;;5088046;28;20028;-77
2021/06/24 11:42:43;;;;;;;0.77;0.70;;;26.60;95.90;;;;;;5064623;28;20036;-77
2021/06/24 11:45:14;;;;;;;3.05;0.70;;;26.80;54.50;;;;;;5072875;28;20016;-77
2021/06/24 11:47:44;;;;;;;1.00;0.85;;;26.80;25.80;;;;;;5072050;28;20401;-75
2021/06/24 12:04:05;;;;;;;2.97;1.00;;;26.30;1.00;;;;;;5073665;28;20558;-76
2021/06/24 12:06:44;;;;;;;2.80;0.60;;;25.90;1.00;;;;;;5069836;28;20488;-76
2021/06/24 12:09:10;;;;;;;1.70;0.60;;;26.00;1.00;;;;;;5065286;28;20031;-76
2021/06/24 12:11:38;;;;;;;1.17;0.77;;;25.70;1.00;;;;;;5072154;28;20099;-77
2021/06/24 12:14:24;;;;;;;1.67;0.77;;;25.50;1.00;;;;;;5088782;28;20017;-78
2021/06/24 12:17:10;;;;;;;1.42;0.88;;;25.40;1.00;;;;;;5073721;28;20025;-77
2021/06/24 12:19:43;;;;;;;2.70;0.70;;;25.10;1.00;;;;;;5071740;28;20107;-76
2021/06/24 12:22:09;;;;;;;2.25;0.82;;;24.90;1.00;;;;;;5061334;28;20335;-76
2021/06/24 12:24:35;;;;;;;3.10;0.75;;;24.80;1.00;;;;;;5071977;28;20035;-77
2021/06/24 12:27:40;;;;;;;0.90;0.80;;;24.80;1.00;;;;;;5085398;28;20028;-76
2021/06/24 12:30:34;;;;;;;0.90;0.60;;;24.80;1.00;;;;;;5055559;28;20056;-76
2021/06/24 12:33:06;;;;;;;1.15;0.80;;;25.00;1.00;;;;;;5074326;28;20520;-76
2021/06/24 12:35:33;;;;;;;0.88;0.63;;;25.30;1.00;;;;;;5062681;28;20033;-77
2021/06/24 12:38:01;;;;;;;2.00;0.60;;;25.60;1.00;;;;;;5070505;28;21767;-76
2021/06/24 12:40:41;;;;;;;2.40;0.60;;;25.70;1.00;;;;;;5066245;28;20501;-76
2021/06/24 12:43:08;;;;;;;0.85;0.57;;;25.70;1.00;;;;;;5068596;28;20103;-77
2021/06/24 12:45:38;;;;;;;1.08;0.50;;;26.10;99.90;;;;;;5065224;28;20368;-77
2021/06/24 12:48:04;;;;;;;1.77;0.65;;;26.30;99.90;;;;;;5068676;28;20073;-78
2021/06/24 12:50:44;;;;;;;1.73;0.52;;;26.40;99.90;;;;;;5065170;28;20049;-76
2021/06/24 12:53:09;;;;;;;0.50;0.50;;;27.00;99.90;;;;;;5064808;28;20381;-76
2021/06/24 12:55:44;;;;;;;1.58;0.68;;;27.40;99.90;;;;;;5068136;28;20259;-78
2021/06/24 12:58:22;;;;;;;1.60;0.85;;;27.20;99.90;;;;;;5070650;28;20028;-78
2021/06/24 13:00:52;;;;;;;1.40;0.47;;;27.10;99.90;;;;;;5061189;28;20448;-76
2021/06/24 13:03:36;;;;;;;0.50;0.40;;;27.00;99.90;;;;;;5070833;28;20035;-77
2021/06/24 13:06:30;;;;;;;1.58;0.38;;;27.30;99.90;;;;;;5068592;28;20051;-78
2021/06/24 13:08:59;;;;;;;0.40;0.40;;;26.80;99.90;;;;;;5069237;28;20051;-77
2021/06/24 13:11:36;;;;;;;0.47;0.47;;;27.10;99.90;;;;;;5075841;28;20068;-77
2021/06/24 13:14:03;;;;;;;0.75;0.50;;;27.50;99.90;;;;;;5058359;28;20025;-76